Avondale, Washington
Current Conditions -  °F | °C
As of 1:53 AM on Tuesday 21 Oct 2014 (Local Time) from KBFI Reporting Station
Light Rain Light Rain  
Wind Chill: 57°   Ceiling: 6000
Heat Index: 57°   Visibility: 9mi
Dew Point: 51°   Wind: 6mph
Humidity: 81%   Direction: 140°SE
Pressure: 29.82"   Gusts: NA
Location:  47.6833°N, 122.123°W
Report Text: KBFI 210853Z 14005KT 9SM -RA SCT045 OVC060 14/11 A2982 RMK AO2 RAB52 SLP098 P0000 60000 T01390106 53008
Loading
Personal Weather Stations






























Interactive Weather Map New forecast layout! Learn more

10-Day Weather Forecast

Advertisements
Track Severe Weather on mobile